sensor_id;sensor_type;location;lat;lon;timestamp;P1;durP1;ratioP1;P2;durP2;ratioP2
6177;SDS011;3122;48.208;11.174;2023-04-06T00:03:33;11.50;;;8.77;;
6177;SDS011;3122;48.208;11.174;2023-04-06T00:08:34;13.80;;;9.47;;
6177;SDS011;3122;48.208;11.174;2023-04-06T00:13:35;14.80;;;9.03;;
6177;SDS011;3122;48.208;11.174;2023-04-06T00:18:35;12.23;;;8.73;;
6177;SDS011;3122;48.208;11.174;2023-04-06T00:23:36;13.43;;;9.17;;
6177;SDS011;3122;48.208;11.174;2023-04-06T00:28:37;15.67;;;9.57;;
6177;SDS011;3122;48.208;11.174;2023-04-06T00:33:37;12.93;;;8.60;;
6177;SDS011;3122;48.208;11.174;2023-04-06T00:38:38;15.10;;;9.57;;
6177;SDS011;3122;48.208;11.174;2023-04-06T00:43:39;14.20;;;9.60;;
6177;SDS011;3122;48.208;11.174;2023-04-06T00:48:39;14.90;;;9.67;;
6177;SDS011;3122;48.208;11.174;2023-04-06T00:53:40;18.00;;;10.30;;
6177;SDS011;3122;48.208;11.174;2023-04-06T00:58:41;13.90;;;9.87;;
6177;SDS011;3122;48.208;11.174;2023-04-06T01:03:41;14.93;;;10.23;;
6177;SDS011;3122;48.208;11.174;2023-04-06T01:08:44;17.53;;;9.97;;
6177;SDS011;3122;48.208;11.174;2023-04-06T01:13:44;16.10;;;9.80;;
6177;SDS011;3122;48.208;11.174;2023-04-06T01:18:46;16.43;;;10.27;;
6177;SDS011;3122;48.208;11.174;2023-04-06T01:23:46;13.30;;;10.00;;
6177;SDS011;3122;48.208;11.174;2023-04-06T01:28:47;15.53;;;10.40;;
6177;SDS011;3122;48.208;11.174;2023-04-06T01:33:47;15.13;;;10.13;;
6177;SDS011;3122;48.208;11.174;2023-04-06T01:38:48;24.10;;;14.20;;
6177;SDS011;3122;48.208;11.174;2023-04-06T01:43:49;21.90;;;13.43;;
6177;SDS011;3122;48.208;11.174;2023-04-06T01:48:50;22.87;;;13.00;;
6177;SDS011;3122;48.208;11.174;2023-04-06T01:53:50;18.60;;;11.40;;
6177;SDS011;3122;48.208;11.174;2023-04-06T01:58:51;12.93;;;9.37;;
6177;SDS011;3122;48.208;11.174;2023-04-06T02:03:52;15.67;;;9.20;;
6177;SDS011;3122;48.208;11.174;2023-04-06T02:08:52;12.13;;;8.70;;
6177;SDS011;3122;48.208;11.174;2023-04-06T02:13:53;15.03;;;10.47;;
6177;SDS011;3122;48.208;11.174;2023-04-06T02:18:54;11.83;;;8.53;;
6177;SDS011;3122;48.208;11.174;2023-04-06T02:23:55;14.47;;;9.70;;
6177;SDS011;3122;48.208;11.174;2023-04-06T02:28:55;16.20;;;10.30;;
6177;SDS011;3122;48.208;11.174;2023-04-06T02:33:56;18.50;;;11.20;;
6177;SDS011;3122;48.208;11.174;2023-04-06T02:38:56;17.03;;;10.53;;
6177;SDS011;3122;48.208;11.174;2023-04-06T02:43:57;15.93;;;9.83;;
6177;SDS011;3122;48.208;11.174;2023-04-06T02:48:58;14.07;;;9.93;;
6177;SDS011;3122;48.208;11.174;2023-04-06T02:54:00;19.60;;;10.53;;
6177;SDS011;3122;48.208;11.174;2023-04-06T02:59:00;16.07;;;10.10;;
6177;SDS011;3122;48.208;11.174;2023-04-06T03:04:01;17.40;;;10.83;;
6177;SDS011;3122;48.208;11.174;2023-04-06T03:09:02;15.00;;;10.10;;
6177;SDS011;3122;48.208;11.174;2023-04-06T03:14:03;15.27;;;10.23;;
6177;SDS011;3122;48.208;11.174;2023-04-06T03:19:03;14.43;;;9.97;;
6177;SDS011;3122;48.208;11.174;2023-04-06T03:24:04;17.77;;;10.80;;
6177;SDS011;3122;48.208;11.174;2023-04-06T03:29:05;17.30;;;10.70;;
6177;SDS011;3122;48.208;11.174;2023-04-06T03:34:06;12.70;;;9.43;;
6177;SDS011;3122;48.208;11.174;2023-04-06T03:39:06;15.07;;;10.70;;
6177;SDS011;3122;48.208;11.174;2023-04-06T03:44:07;19.23;;;11.63;;
6177;SDS011;3122;48.208;11.174;2023-04-06T03:49:08;20.30;;;12.50;;
6177;SDS011;3122;48.208;11.174;2023-04-06T03:54:08;15.87;;;10.97;;
6177;SDS011;3122;48.208;11.174;2023-04-06T03:59:09;16.37;;;11.30;;
6177;SDS011;3122;48.208;11.174;2023-04-06T04:04:10;15.33;;;10.90;;
6177;SDS011;3122;48.208;11.174;2023-04-06T04:09:10;18.13;;;12.53;;
6177;SDS011;3122;48.208;11.174;2023-04-06T04:14:11;23.03;;;12.50;;
6177;SDS011;3122;48.208;11.174;2023-04-06T04:19:12;16.57;;;11.67;;
6177;SDS011;3122;48.208;11.174;2023-04-06T04:24:12;16.53;;;11.70;;
6177;SDS011;3122;48.208;11.174;2023-04-06T04:29:13;17.60;;;11.30;;
6177;SDS011;3122;48.208;11.174;2023-04-06T04:34:14;16.43;;;10.80;;
6177;SDS011;3122;48.208;11.174;2023-04-06T04:39:15;20.53;;;11.77;;
6177;SDS011;3122;48.208;11.174;2023-04-06T04:44:15;15.83;;;10.87;;
6177;SDS011;3122;48.208;11.174;2023-04-06T04:49:16;17.57;;;10.90;;
6177;SDS011;3122;48.208;11.174;2023-04-06T04:54:17;19.57;;;11.90;;
6177;SDS011;3122;48.208;11.174;2023-04-06T04:59:17;18.20;;;10.60;;
6177;SDS011;3122;48.208;11.174;2023-04-06T05:04:18;16.23;;;10.83;;
6177;SDS011;3122;48.208;11.174;2023-04-06T05:09:19;13.80;;;10.17;;
6177;SDS011;3122;48.208;11.174;2023-04-06T05:14:19;19.87;;;12.13;;
6177;SDS011;3122;48.208;11.174;2023-04-06T05:19:20;18.97;;;12.17;;
6177;SDS011;3122;48.208;11.174;2023-04-06T05:24:21;19.60;;;11.97;;
6177;SDS011;3122;48.208;11.174;2023-04-06T05:29:21;18.53;;;11.70;;
6177;SDS011;3122;48.208;11.174;2023-04-06T05:34:22;15.40;;;11.03;;
6177;SDS011;3122;48.208;11.174;2023-04-06T05:39:23;16.93;;;11.77;;
6177;SDS011;3122;48.208;11.174;2023-04-06T05:44:23;18.43;;;11.77;;
6177;SDS011;3122;48.208;11.174;2023-04-06T05:49:24;18.80;;;11.70;;
6177;SDS011;3122;48.208;11.174;2023-04-06T05:54:25;19.97;;;11.73;;
6177;SDS011;3122;48.208;11.174;2023-04-06T05:59:26;22.40;;;14.37;;
6177;SDS011;3122;48.208;11.174;2023-04-06T06:04:26;17.93;;;11.73;;
6177;SDS011;3122;48.208;11.174;2023-04-06T06:09:27;21.63;;;12.33;;
6177;SDS011;3122;48.208;11.174;2023-04-06T06:14:27;18.60;;;11.70;;
6177;SDS011;3122;48.208;11.174;2023-04-06T06:19:31;17.00;;;11.83;;
6177;SDS011;3122;48.208;11.174;2023-04-06T06:24:31;15.53;;;11.60;;
6177;SDS011;3122;48.208;11.174;2023-04-06T06:29:32;18.20;;;11.57;;
6177;SDS011;3122;48.208;11.174;2023-04-06T06:34:32;16.30;;;11.77;;
6177;SDS011;3122;48.208;11.174;2023-04-06T06:39:33;19.60;;;11.60;;
6177;SDS011;3122;48.208;11.174;2023-04-06T06:44:34;17.83;;;10.43;;
6177;SDS011;3122;48.208;11.174;2023-04-06T06:49:34;16.10;;;11.20;;
6177;SDS011;3122;48.208;11.174;2023-04-06T06:54:35;15.67;;;11.87;;
6177;SDS011;3122;48.208;11.174;2023-04-06T06:59:36;19.80;;;11.43;;
6177;SDS011;3122;48.208;11.174;2023-04-06T07:04:36;15.40;;;11.10;;
6177;SDS011;3122;48.208;11.174;2023-04-06T07:09:37;14.97;;;10.70;;
6177;SDS011;3122;48.208;11.174;2023-04-06T07:14:37;13.97;;;10.47;;
6177;SDS011;3122;48.208;11.174;2023-04-06T07:19:38;16.40;;;9.70;;
6177;SDS011;3122;48.208;11.174;2023-04-06T07:24:39;12.17;;;10.00;;
6177;SDS011;3122;48.208;11.174;2023-04-06T07:29:40;18.90;;;10.70;;
6177;SDS011;3122;48.208;11.174;2023-04-06T07:34:40;15.37;;;10.50;;
6177;SDS011;3122;48.208;11.174;2023-04-06T07:39:41;22.13;;;9.80;;
6177;SDS011;3122;48.208;11.174;2023-04-06T07:44:41;10.93;;;8.80;;
6177;SDS011;3122;48.208;11.174;2023-04-06T07:49:42;9.97;;;8.60;;
6177;SDS011;3122;48.208;11.174;2023-04-06T07:54:43;12.00;;;9.10;;
6177;SDS011;3122;48.208;11.174;2023-04-06T07:59:44;11.73;;;8.90;;
6177;SDS011;3122;48.208;11.174;2023-04-06T08:04:44;10.50;;;8.30;;
6177;SDS011;3122;48.208;11.174;2023-04-06T08:09:46;13.20;;;9.10;;
6177;SDS011;3122;48.208;11.174;2023-04-06T08:14:47;12.87;;;9.00;;
6177;SDS011;3122;48.208;11.174;2023-04-06T08:19:48;11.77;;;8.93;;
6177;SDS011;3122;48.208;11.174;2023-04-06T08:24:50;12.07;;;8.87;;
6177;SDS011;3122;48.208;11.174;2023-04-06T08:29:51;12.70;;;9.33;;
6177;SDS011;3122;48.208;11.174;2023-04-06T08:34:54;13.90;;;8.70;;
6177;SDS011;3122;48.208;11.174;2023-04-06T08:39:55;13.87;;;9.73;;
6177;SDS011;3122;48.208;11.174;2023-04-06T08:44:57;11.43;;;8.47;;
6177;SDS011;3122;48.208;11.174;2023-04-06T08:49:57;12.97;;;8.40;;
6177;SDS011;3122;48.208;11.174;2023-04-06T08:55:01;14.80;;;9.27;;
6177;SDS011;3122;48.208;11.174;2023-04-06T09:00:03;13.33;;;8.50;;
6177;SDS011;3122;48.208;11.174;2023-04-06T09:05:04;13.30;;;9.37;;
6177;SDS011;3122;48.208;11.174;2023-04-06T09:10:06;14.10;;;9.00;;
6177;SDS011;3122;48.208;11.174;2023-04-06T09:15:07;12.80;;;8.70;;
6177;SDS011;3122;48.208;11.174;2023-04-06T09:20:22;13.53;;;9.27;;
6177;SDS011;3122;48.208;11.174;2023-04-06T09:25:25;10.97;;;8.77;;
6177;SDS011;3122;48.208;11.174;2023-04-06T09:30:26;12.63;;;9.70;;
6177;SDS011;3122;48.208;11.174;2023-04-06T09:35:27;12.53;;;10.10;;
6177;SDS011;3122;48.208;11.174;2023-04-06T09:40:30;13.93;;;10.37;;
6177;SDS011;3122;48.208;11.174;2023-04-06T09:45:30;11.93;;;9.00;;
6177;SDS011;3122;48.208;11.174;2023-04-06T09:50:32;14.33;;;10.10;;
6177;SDS011;3122;48.208;11.174;2023-04-06T09:55:39;16.03;;;10.70;;
6177;SDS011;3122;48.208;11.174;2023-04-06T10:00:51;14.30;;;9.30;;
6177;SDS011;3122;48.208;11.174;2023-04-06T10:05:59;14.47;;;9.70;;
6177;SDS011;3122;48.208;11.174;2023-04-06T10:11:10;11.57;;;9.20;;
6177;SDS011;3122;48.208;11.174;2023-04-06T10:16:11;12.00;;;9.70;;
6177;SDS011;3122;48.208;11.174;2023-04-06T10:21:14;15.73;;;10.30;;
6177;SDS011;3122;48.208;11.174;2023-04-06T10:26:20;10.97;;;9.17;;
6177;SDS011;3122;48.208;11.174;2023-04-06T10:31:24;13.20;;;10.00;;
6177;SDS011;3122;48.208;11.174;2023-04-06T10:36:26;13.20;;;10.00;;
6177;SDS011;3122;48.208;11.174;2023-04-06T10:41:34;14.27;;;9.80;;
6177;SDS011;3122;48.208;11.174;2023-04-06T10:46:41;15.33;;;10.80;;
6177;SDS011;3122;48.208;11.174;2023-04-06T10:51:54;16.40;;;10.00;;
6177;SDS011;3122;48.208;11.174;2023-04-06T10:56:55;9.83;;;7.30;;
6177;SDS011;3122;48.208;11.174;2023-04-06T11:01:56;11.30;;;8.60;;
6177;SDS011;3122;48.208;11.174;2023-04-06T11:06:56;10.97;;;8.70;;
6177;SDS011;3122;48.208;11.174;2023-04-06T11:11:57;10.40;;;8.73;;
6177;SDS011;3122;48.208;11.174;2023-04-06T11:16:58;12.57;;;9.43;;
6177;SDS011;3122;48.208;11.174;2023-04-06T11:22:05;12.23;;;9.40;;
6177;SDS011;3122;48.208;11.174;2023-04-06T11:27:07;12.33;;;8.83;;
6177;SDS011;3122;48.208;11.174;2023-04-06T11:32:08;16.20;;;9.93;;
6177;SDS011;3122;48.208;11.174;2023-04-06T11:37:10;16.73;;;10.77;;
6177;SDS011;3122;48.208;11.174;2023-04-06T11:42:11;14.47;;;9.30;;
6177;SDS011;3122;48.208;11.174;2023-04-06T11:47:12;13.10;;;10.07;;
6177;SDS011;3122;48.208;11.174;2023-04-06T11:52:23;13.23;;;9.10;;
6177;SDS011;3122;48.208;11.174;2023-04-06T11:57:25;13.83;;;9.83;;
6177;SDS011;3122;48.208;11.174;2023-04-06T12:02:26;11.83;;;8.93;;
6177;SDS011;3122;48.208;11.174;2023-04-06T12:07:26;15.37;;;9.87;;
6177;SDS011;3122;48.208;11.174;2023-04-06T12:12:28;10.90;;;8.77;;
6177;SDS011;3122;48.208;11.174;2023-04-06T12:17:28;12.13;;;8.20;;
6177;SDS011;3122;48.208;11.174;2023-04-06T12:22:29;12.83;;;8.97;;
6177;SDS011;3122;48.208;11.174;2023-04-06T12:27:30;9.43;;;7.60;;
6177;SDS011;3122;48.208;11.174;2023-04-06T12:32:30;8.57;;;7.40;;
6177;SDS011;3122;48.208;11.174;2023-04-06T12:37:31;8.67;;;7.53;;
6177;SDS011;3122;48.208;11.174;2023-04-06T12:42:32;7.80;;;6.47;;
6177;SDS011;3122;48.208;11.174;2023-04-06T12:47:32;8.70;;;7.13;;
6177;SDS011;3122;48.208;11.174;2023-04-06T12:52:33;10.77;;;7.33;;
6177;SDS011;3122;48.208;11.174;2023-04-06T12:57:35;10.17;;;6.60;;
6177;SDS011;3122;48.208;11.174;2023-04-06T13:02:37;9.80;;;7.47;;
6177;SDS011;3122;48.208;11.174;2023-04-06T13:07:37;9.40;;;6.83;;
6177;SDS011;3122;48.208;11.174;2023-04-06T13:12:38;7.73;;;6.50;;
6177;SDS011;3122;48.208;11.174;2023-04-06T13:17:38;8.47;;;6.77;;
6177;SDS011;3122;48.208;11.174;2023-04-06T13:22:39;8.07;;;6.67;;
6177;SDS011;3122;48.208;11.174;2023-04-06T13:27:40;6.70;;;5.90;;
6177;SDS011;3122;48.208;11.174;2023-04-06T13:32:40;8.87;;;6.50;;
6177;SDS011;3122;48.208;11.174;2023-04-06T13:37:41;10.67;;;7.00;;
6177;SDS011;3122;48.208;11.174;2023-04-06T13:42:42;6.50;;;5.70;;
6177;SDS011;3122;48.208;11.174;2023-04-06T13:47:44;6.10;;;5.47;;
6177;SDS011;3122;48.208;11.174;2023-04-06T13:52:48;7.40;;;5.70;;
6177;SDS011;3122;48.208;11.174;2023-04-06T13:57:50;7.47;;;5.93;;
6177;SDS011;3122;48.208;11.174;2023-04-06T14:02:53;12.57;;;7.60;;
6177;SDS011;3122;48.208;11.174;2023-04-06T14:07:55;8.00;;;6.30;;
6177;SDS011;3122;48.208;11.174;2023-04-06T14:12:55;8.97;;;6.10;;
6177;SDS011;3122;48.208;11.174;2023-04-06T14:17:58;6.70;;;6.00;;
6177;SDS011;3122;48.208;11.174;2023-04-06T14:23:02;9.30;;;7.17;;
6177;SDS011;3122;48.208;11.174;2023-04-06T14:28:03;7.70;;;6.50;;
6177;SDS011;3122;48.208;11.174;2023-04-06T14:33:04;7.37;;;6.50;;
6177;SDS011;3122;48.208;11.174;2023-04-06T14:38:05;7.80;;;6.17;;
6177;SDS011;3122;48.208;11.174;2023-04-06T14:43:06;11.33;;;6.37;;
6177;SDS011;3122;48.208;11.174;2023-04-06T14:48:06;8.60;;;6.23;;
6177;SDS011;3122;48.208;11.174;2023-04-06T14:53:07;7.13;;;6.33;;
6177;SDS011;3122;48.208;11.174;2023-04-06T14:58:07;7.97;;;6.70;;
6177;SDS011;3122;48.208;11.174;2023-04-06T15:03:08;8.90;;;6.60;;
6177;SDS011;3122;48.208;11.174;2023-04-06T15:08:08;9.20;;;6.80;;
6177;SDS011;3122;48.208;11.174;2023-04-06T15:13:09;7.13;;;6.23;;
6177;SDS011;3122;48.208;11.174;2023-04-06T15:18:10;11.03;;;7.30;;
6177;SDS011;3122;48.208;11.174;2023-04-06T15:23:12;8.40;;;6.83;;
6177;SDS011;3122;48.208;11.174;2023-04-06T15:28:12;8.60;;;6.67;;
6177;SDS011;3122;48.208;11.174;2023-04-06T15:33:13;8.83;;;6.27;;
6177;SDS011;3122;48.208;11.174;2023-04-06T15:38:13;8.63;;;7.40;;
6177;SDS011;3122;48.208;11.174;2023-04-06T15:43:14;8.43;;;6.73;;
6177;SDS011;3122;48.208;11.174;2023-04-06T15:48:15;9.53;;;7.77;;
6177;SDS011;3122;48.208;11.174;2023-04-06T15:53:16;7.60;;;6.80;;
6177;SDS011;3122;48.208;11.174;2023-04-06T15:58:16;8.60;;;6.80;;
6177;SDS011;3122;48.208;11.174;2023-04-06T16:03:17;10.80;;;7.03;;
6177;SDS011;3122;48.208;11.174;2023-04-06T16:08:17;8.27;;;6.90;;
6177;SDS011;3122;48.208;11.174;2023-04-06T16:13:19;7.53;;;6.63;;
6177;SDS011;3122;48.208;11.174;2023-04-06T16:18:20;8.50;;;6.83;;
6177;SDS011;3122;48.208;11.174;2023-04-06T16:23:21;7.60;;;6.80;;
6177;SDS011;3122;48.208;11.174;2023-04-06T16:28:21;7.80;;;6.87;;
6177;SDS011;3122;48.208;11.174;2023-04-06T16:33:23;7.93;;;6.50;;
6177;SDS011;3122;48.208;11.174;2023-04-06T16:38:24;7.17;;;6.40;;
6177;SDS011;3122;48.208;11.174;2023-04-06T16:43:28;8.30;;;7.17;;
6177;SDS011;3122;48.208;11.174;2023-04-06T16:48:29;10.80;;;6.97;;
6177;SDS011;3122;48.208;11.174;2023-04-06T16:53:30;7.03;;;6.20;;
6177;SDS011;3122;48.208;11.174;2023-04-06T16:58:32;11.03;;;8.07;;
6177;SDS011;3122;48.208;11.174;2023-04-06T17:03:32;14.73;;;10.27;;
6177;SDS011;3122;48.208;11.174;2023-04-06T17:08:34;8.20;;;6.80;;
6177;SDS011;3122;48.208;11.174;2023-04-06T17:13:34;8.80;;;6.70;;
6177;SDS011;3122;48.208;11.174;2023-04-06T17:18:35;6.57;;;5.93;;
6177;SDS011;3122;48.208;11.174;2023-04-06T17:23:36;8.03;;;5.97;;
6177;SDS011;3122;48.208;11.174;2023-04-06T17:28:37;9.53;;;6.87;;
6177;SDS011;3122;48.208;11.174;2023-04-06T17:33:38;7.70;;;6.70;;
6177;SDS011;3122;48.208;11.174;2023-04-06T17:38:39;7.73;;;6.97;;
6177;SDS011;3122;48.208;11.174;2023-04-06T17:43:42;9.00;;;7.93;;
6177;SDS011;3122;48.208;11.174;2023-04-06T17:48:43;8.00;;;6.10;;
6177;SDS011;3122;48.208;11.174;2023-04-06T17:53:45;9.40;;;7.43;;
6177;SDS011;3122;48.208;11.174;2023-04-06T17:58:46;12.40;;;9.30;;
6177;SDS011;3122;48.208;11.174;2023-04-06T18:03:46;11.43;;;8.80;;
6177;SDS011;3122;48.208;11.174;2023-04-06T18:08:47;15.57;;;11.90;;
6177;SDS011;3122;48.208;11.174;2023-04-06T18:13:48;13.47;;;9.33;;
6177;SDS011;3122;48.208;11.174;2023-04-06T18:18:48;12.73;;;9.00;;
6177;SDS011;3122;48.208;11.174;2023-04-06T18:23:49;12.40;;;8.30;;
6177;SDS011;3122;48.208;11.174;2023-04-06T18:28:49;12.43;;;8.40;;
6177;SDS011;3122;48.208;11.174;2023-04-06T18:33:50;16.03;;;9.53;;
6177;SDS011;3122;48.208;11.174;2023-04-06T18:38:51;9.80;;;8.23;;
6177;SDS011;3122;48.208;11.174;2023-04-06T18:43:52;9.43;;;6.50;;
6177;SDS011;3122;48.208;11.174;2023-04-06T18:48:52;10.10;;;5.80;;
6177;SDS011;3122;48.208;11.174;2023-04-06T18:53:53;10.13;;;7.27;;
6177;SDS011;3122;48.208;11.174;2023-04-06T18:58:54;9.83;;;6.90;;
6177;SDS011;3122;48.208;11.174;2023-04-06T19:03:55;12.43;;;8.20;;
6177;SDS011;3122;48.208;11.174;2023-04-06T19:08:58;11.80;;;8.90;;
6177;SDS011;3122;48.208;11.174;2023-04-06T19:13:58;14.23;;;8.47;;
6177;SDS011;3122;48.208;11.174;2023-04-06T19:18:59;9.83;;;6.93;;
6177;SDS011;3122;48.208;11.174;2023-04-06T19:23:59;13.90;;;9.97;;
6177;SDS011;3122;48.208;11.174;2023-04-06T19:29:01;17.07;;;11.40;;
6177;SDS011;3122;48.208;11.174;2023-04-06T19:34:01;23.80;;;13.97;;
6177;SDS011;3122;48.208;11.174;2023-04-06T19:39:03;11.40;;;8.20;;
6177;SDS011;3122;48.208;11.174;2023-04-06T19:44:03;17.57;;;9.77;;
6177;SDS011;3122;48.208;11.174;2023-04-06T19:49:04;12.37;;;8.47;;
6177;SDS011;3122;48.208;11.174;2023-04-06T19:54:04;15.03;;;8.27;;
6177;SDS011;3122;48.208;11.174;2023-04-06T19:59:05;9.90;;;7.80;;
6177;SDS011;3122;48.208;11.174;2023-04-06T20:04:06;14.50;;;11.00;;
6177;SDS011;3122;48.208;11.174;2023-04-06T20:09:07;17.13;;;11.10;;
6177;SDS011;3122;48.208;11.174;2023-04-06T20:14:07;14.13;;;9.90;;
6177;SDS011;3122;48.208;11.174;2023-04-06T20:19:08;12.60;;;7.40;;
6177;SDS011;3122;48.208;11.174;2023-04-06T20:24:08;24.37;;;13.10;;
6177;SDS011;3122;48.208;11.174;2023-04-06T20:29:10;19.30;;;12.70;;
6177;SDS011;3122;48.208;11.174;2023-04-06T20:34:11;18.03;;;11.10;;
6177;SDS011;3122;48.208;11.174;2023-04-06T20:39:11;14.63;;;10.23;;
6177;SDS011;3122;48.208;11.174;2023-04-06T20:44:12;16.30;;;9.20;;
6177;SDS011;3122;48.208;11.174;2023-04-06T20:49:13;16.30;;;11.20;;
6177;SDS011;3122;48.208;11.174;2023-04-06T20:54:13;35.63;;;17.30;;
6177;SDS011;3122;48.208;11.174;2023-04-06T20:59:14;18.23;;;10.87;;
6177;SDS011;3122;48.208;11.174;2023-04-06T21:04:14;16.67;;;9.90;;
6177;SDS011;3122;48.208;11.174;2023-04-06T21:09:15;14.10;;;10.13;;
6177;SDS011;3122;48.208;11.174;2023-04-06T21:14:16;18.80;;;10.50;;
6177;SDS011;3122;48.208;11.174;2023-04-06T21:19:17;14.30;;;11.10;;
6177;SDS011;3122;48.208;11.174;2023-04-06T21:24:18;16.20;;;10.97;;
6177;SDS011;3122;48.208;11.174;2023-04-06T21:29:18;17.77;;;11.43;;
6177;SDS011;3122;48.208;11.174;2023-04-06T21:34:19;19.20;;;13.37;;
6177;SDS011;3122;48.208;11.174;2023-04-06T21:39:20;16.93;;;12.23;;
6177;SDS011;3122;48.208;11.174;2023-04-06T21:44:22;15.30;;;10.90;;
6177;SDS011;3122;48.208;11.174;2023-04-06T21:49:23;13.47;;;10.00;;
6177;SDS011;3122;48.208;11.174;2023-04-06T21:54:24;14.37;;;9.23;;
6177;SDS011;3122;48.208;11.174;2023-04-06T21:59:26;12.20;;;9.00;;
6177;SDS011;3122;48.208;11.174;2023-04-06T22:04:27;13.20;;;8.93;;
6177;SDS011;3122;48.208;11.174;2023-04-06T22:09:31;13.30;;;9.07;;
6177;SDS011;3122;48.208;11.174;2023-04-06T22:14:31;14.50;;;8.47;;
6177;SDS011;3122;48.208;11.174;2023-04-06T22:19:32;14.57;;;10.10;;
6177;SDS011;3122;48.208;11.174;2023-04-06T22:24:33;12.80;;;8.87;;
6177;SDS011;3122;48.208;11.174;2023-04-06T22:29:35;12.40;;;8.70;;
6177;SDS011;3122;48.208;11.174;2023-04-06T22:34:36;9.90;;;7.93;;
6177;SDS011;3122;48.208;11.174;2023-04-06T22:39:37;11.10;;;8.70;;
6177;SDS011;3122;48.208;11.174;2023-04-06T22:44:38;12.87;;;9.77;;
6177;SDS011;3122;48.208;11.174;2023-04-06T22:49:39;12.60;;;9.07;;
6177;SDS011;3122;48.208;11.174;2023-04-06T22:54:49;9.60;;;8.03;;
6177;SDS011;3122;48.208;11.174;2023-04-06T22:59:51;13.50;;;9.67;;
6177;SDS011;3122;48.208;11.174;2023-04-06T23:04:52;12.80;;;9.67;;
6177;SDS011;3122;48.208;11.174;2023-04-06T23:09:53;13.53;;;9.90;;
6177;SDS011;3122;48.208;11.174;2023-04-06T23:14:55;12.90;;;9.27;;
6177;SDS011;3122;48.208;11.174;2023-04-06T23:19:59;12.67;;;8.93;;
6177;SDS011;3122;48.208;11.174;2023-04-06T23:25:01;13.07;;;9.30;;
6177;SDS011;3122;48.208;11.174;2023-04-06T23:30:03;12.97;;;9.23;;
6177;SDS011;3122;48.208;11.174;2023-04-06T23:35:07;16.53;;;10.40;;
6177;SDS011;3122;48.208;11.174;2023-04-06T23:40:11;12.77;;;8.53;;
6177;SDS011;3122;48.208;11.174;2023-04-06T23:45:12;15.90;;;11.10;;
6177;SDS011;3122;48.208;11.174;2023-04-06T23:50:15;19.87;;;12.47;;
6177;SDS011;3122;48.208;11.174;2023-04-06T23:55:17;19.67;;;12.40;;
